Flight Track Log - Related Links

Times and Time Zones

All times are in EST time to prevent confusion due to time zone crossing. See the N45EJ flight status page for this flight to view local times or setup timezone preferences in your user account.

Time Position Orientation Groundspeed Altitude Reporting Facility
EST Latitude Longitude Course Direction KTS MPH feet Rate Location/Type
Fri 08:45:59 AM 33.6219 -116.1592 48° Northeast 239 275 7,100  Level Los Angeles Center
Fri 08:46:59 AM 33.6908 -116.1683 354° North 274 315 10,100 1,587 Climbing Los Angeles Center
Fri 08:48:00 AM 33.7017 -116.0581 83° East 338 389 10,300 1,884 Climbing Los Angeles Center
Fri 08:49:00 AM 33.7033 -115.9431 89° East 350 403 13,900 3,769 Climbing Los Angeles Center
Fri 08:50:01 AM 33.7678 -115.8528 49° Northeast 354 407 17,900 3,769 Climbing Los Angeles Center
Fri 08:51:00 AM 34.0311 -115.4851 48° Northeast  Level Estimated
Fri 08:51:01 AM 33.8197 -115.7519 58° Northeast 353 406 21,500  Level Los Angeles Center
Fri 08:52:02 AM 33.8717 -115.6556 57° Northeast 347 399 24,800 3,223 Climbing Los Angeles Center
Fri 08:53:02 AM 33.9253 -115.5681 54° Northeast 331 381 28,000 3,223 Climbing Los Angeles Center
Fri 08:54:03 AM 33.9725 -115.4872 55° Northeast 304 350 31,300 2,678 Climbing Los Angeles Center
Fri 08:55:03 AM 34.0172 -115.4125 54° Northeast 277 319 33,400 1,488 Climbing Los Angeles Center
Fri 08:56:04 AM 34.0650 -115.3311 55° Northeast 293 337 34,300 744 Climbing Los Angeles Center
Fri 08:57:04 AM 34.1189 -115.2389 55° Northeast 329 379 34,900 793 Climbing Los Angeles Center
Fri 08:58:05 AM 34.1792 -115.1394 54° Northeast 358 412 35,900 1,140 Climbing Los Angeles Center
Fri 08:59:05 AM 34.2389 -115.0392 54° Northeast 366 421 37,200 1,091 Climbing Los Angeles Center
Fri 09:00:06 AM 34.2992 -114.9375 54° Northeast 370 426 38,100 836 Climbing Los Angeles Center
Fri 09:01:07 AM 34.3606 -114.8317 55° Northeast 379 436 38,900 793 Climbing Los Angeles Center
Fri 09:02:07 AM 34.4244 -114.7242 54° Northeast 389 448 39,700 843 Climbing Los Angeles Center
Fri 09:03:08 AM 34.4872 -114.6158 55° Northeast 394 453 40,600 645 Climbing Los Angeles Center
Fri 09:04:08 AM 34.5517 -114.5056 55° Northeast 398 458 41,000 198 Climbing Los Angeles Center
Fri 09:05:09 AM 34.6172 -114.3922 55° Northeast 408 470 41,000  Level Los Angeles Center
Fri 09:06:10 AM 34.6867 -114.2714 55° Northeast 438 504 41,000  Level Los Angeles Center
Fri 09:07:10 AM 34.7586 -114.1481 55° Northeast 446 513 41,000  Level Los Angeles Center
Fri 09:08:11 AM 34.8447 -113.9989 55° Northeast 450 518 41,000  Level Los Angeles Center
Fri 09:09:12 AM 34.9086 -113.8869 55° Northeast 454 522 41,000  Level Los Angeles Center
Fri 09:10:12 AM 34.9806 -113.7589 56° Northeast 459 528 41,000  Level Los Angeles Center
Fri 09:11:13 AM 35.0536 -113.6314 55° Northeast 459 528 41,000  Level Los Angeles Center
Fri 09:12:14 AM 35.1267 -113.5036 55° Northeast 460 529 41,000  Level Los Angeles Center
Fri 09:13:14 AM 35.1989 -113.3744 56° Northeast 461 531 41,000  Level Los Angeles Center
Fri 09:14:15 AM 35.2772 -113.2350 55° Northeast 454 522 41,000  Level Los Angeles Center
Fri 09:15:16 AM 35.3475 -113.1094 56° Northeast 447 514 41,000  Level Los Angeles Center
Fri 09:16:17 AM 35.4164 -112.9853 56° Northeast 444 511 41,000  Level Los Angeles Center
Fri 09:17:18 AM 35.4944 -112.8444 56° Northeast 458 527 41,000  Level Los Angeles Center
Fri 09:18:18 AM 35.5672 -112.7142 55° Northeast 464 534 41,000  Level Los Angeles Center
Fri 09:19:19 AM 35.6322 -112.5956 56° Northeast 465 535 41,000  Level Los Angeles Center
Fri 09:20:20 AM 35.7050 -112.4633 56° Northeast 468 539 41,000  Level Los Angeles Center
Fri 09:21:21 AM 35.7767 -112.3317 56° Northeast 465 535 41,000  Level Los Angeles Center
Fri 09:22:22 AM 35.8497 -112.2003 56° Northeast 467 537 41,000  Level Los Angeles Center
Fri 09:23:23 AM 35.9267 -112.0719 53° Northeast 466 536 41,000  Level Los Angeles Center
Fri 09:24:23 AM 36.0103 -111.9294 54° Northeast 471 542 41,000  Level Los Angeles Center
Fri 09:25:24 AM 36.0867 -111.7997 54° Northeast 471 542 41,000  Level Los Angeles Center
Fri 09:26:25 AM 36.1636 -111.6694 54° Northeast 470 541 41,000  Level Los Angeles Center
Fri 09:27:26 AM 36.2558 -111.5106 54° Northeast 475 547 41,000  Level Los Angeles Center
Fri 09:28:27 AM 36.3342 -111.3772 54° Northeast 479 551 41,000  Level Los Angeles Center
Fri 09:29:28 AM 36.4119 -111.2431 54° Northeast 481 554 41,000  Level Los Angeles Center
Fri 09:30:29 AM 36.4894 -111.1086 54° Northeast 482 555 41,000  Level Los Angeles Center
Fri 09:31:30 AM 36.5667 -110.9742 54° Northeast 481 554 41,000  Level Los Angeles Center
Fri 09:32:59 AM 36.6767 -110.7842 54° Northeast 483 556 41,000  Level Denver Center
Fri 09:34:00 AM 36.7503 -110.6531 55° Northeast 470 541 41,000  Level Denver Center
Fri 09:35:01 AM 36.8408 -110.4928 55° Northeast 472 543 41,000  Level Denver Center
Fri 09:36:02 AM 36.9167 -110.3583 55° Northeast 475 547 41,000  Level Denver Center
Fri 09:37:03 AM 36.9925 -110.2250 55° Northeast 473 544 41,000  Level Denver Center
Fri 09:38:04 AM 37.0622 -110.0997 55° Northeast 475 547 41,000  Level Denver Center
Fri 09:39:05 AM 37.1461 -109.9486 55° Northeast 473 544 41,000  Level Denver Center
Fri 09:40:06 AM 37.2192 -109.8178 55° Northeast 475 547 41,000  Level Denver Center
Fri 09:41:07 AM 37.2911 -109.6875 55° Northeast 473 544 41,000  Level Denver Center
Fri 09:42:08 AM 37.3747 -109.5358 55° Northeast 472 543 41,000  Level Denver Center
Fri 09:43:09 AM 37.4469 -109.4058 55° Northeast 472 543 41,000  Level Denver Center
Fri 09:44:10 AM 37.5186 -109.2742 56° Northeast 475 547 41,000  Level Denver Center
Fri 09:45:11 AM 37.6017 -109.1189 56° Northeast 476 548 41,000  Level Denver Center
Fri 09:46:13 AM 37.6736 -108.9881 55° Northeast 474 545 41,000 -537 Level Denver Center
Fri 09:47:14 AM 37.7483 -108.8553 55° Northeast 480 552 39,900 -1,377 Descending Denver Center
Fri 09:48:15 AM 37.8569 -108.7186 45° Northeast 491 565 38,200 -1,574 Descending Denver Center
Fri 09:49:16 AM 37.9500 -108.6058 44° Northeast 486 559 36,700 -2,656 Descending Denver Center
Fri 09:50:17 AM 38.0544 -108.4736 45° Northeast 478 550 32,800 -3,393 Descending Denver Center
Fri 09:51:18 AM 38.1367 -108.3700 45° Northeast 477 549 29,800 -3,393 Descending Denver Center
Fri 09:52:19 AM 38.2414 -108.2369 45° Northeast 478 550 25,900 -3,541 Descending Denver Center
Fri 09:53:20 AM 38.3319 -108.1297 43° Northeast 468 539 22,600 -3,443 Descending Denver Center
Fri 09:54:21 AM 38.4617 -108.1233 North 415 478 18,900 -3,492 Descending Denver Center
Fri 09:55:22 AM 38.5631 -108.1342 355° North 385 443 15,500 -3,317 Descending Denver Center
Fri 09:56:24 AM 38.6644 -108.1408 357° North 340 391 12,100 -2,293 Descending Denver Center
Fri 09:57:25 AM 38.7172 -108.0753 44° Northeast 273 314 10,800 -1,426 Descending Denver Center
Fri 09:58:26 AM 38.7450 -107.9922 67° East 258 297 9,200 -823 Descending Denver Center
Fri 09:59:29 AM 38.7486 -107.9119 87° East 260 299 9,100 -95 Descending Denver Center

Login

Don't have an account? Register now (free) for customized features, flight alerts, and more!